Time;durP1;ratioP1;P1;durP2;ratioP2;P2;SDS_P1;SDS_P2;PMS_P1;PMS_P2;Temp;Humidity;BMP_temperature;BMP_pressure;BME280_temperature;BME280_humidity;BME280_pressure;Samples;Min_cycle;Max_cycle;Signal;HPM_P1;HPM_P2
2022/04/09 00:00:25;;;;;;;;;;;19.60;99.90;;;;;;4863259;29;19919;-74
2022/04/09 00:02:51;;;;;;;;;;;19.60;99.90;;;;;;4863244;29;20018;-76
2022/04/09 00:05:18;;;;;;;;;;;19.60;99.90;;;;;;4863132;29;20014;-78
2022/04/09 00:07:44;;;;;;;;;;;19.70;99.90;;;;;;4861962;29;20386;-74
2022/04/09 00:10:12;;;;;;;;;;;19.70;99.90;;;;;;4863330;29;19919;-77
2022/04/09 00:12:39;;;;;;;;;;;19.50;99.90;;;;;;4863213;29;19916;-77
2022/04/09 00:15:06;;;;;;;;;;;19.30;99.90;;;;;;4863112;29;19916;-77
2022/04/09 00:17:37;;;;;;;;;;;19.20;99.90;;;;;;4862703;29;19912;-72
2022/04/09 00:23:10;;;;;;;;;;;19.20;99.90;;;;;;4863123;29;19919;-73
2022/04/09 00:25:37;;;;;;;;;;;19.10;99.90;;;;;;4862744;29;20283;-74
2022/04/09 00:28:04;;;;;;;;;;;19.00;99.90;;;;;;4862905;29;20360;-75
2022/04/09 00:30:32;;;;;;;;;;;19.10;99.90;;;;;;4862947;29;20280;-72
2022/04/09 00:32:59;;;;;;;;;;;19.20;99.90;;;;;;4862775;29;19916;-77
2022/04/09 00:35:26;;;;;;;;;;;19.30;99.90;;;;;;4862530;29;19917;-73
2022/04/09 00:37:52;;;;;;;;;;;19.20;99.90;;;;;;4862439;29;19912;-71
2022/04/09 00:40:19;;;;;;;;;;;19.10;99.90;;;;;;4862241;29;19916;-76
2022/04/09 00:42:46;;;;;;;;;;;19.20;99.90;;;;;;4862667;29;19956;-73
2022/04/09 00:45:13;;;;;;;;;;;19.30;99.90;;;;;;4862249;29;19914;-72
2022/04/09 00:47:40;;;;;;;;;;;19.40;99.90;;;;;;4862300;29;19913;-76
2022/04/09 00:50:08;;;;;;;;;;;19.50;99.90;;;;;;4862109;29;20368;-75
2022/04/09 00:52:38;;;;;;;;;;;19.60;99.90;;;;;;4862419;29;19940;-76
2022/04/09 00:55:05;;;;;;;;;;;19.90;99.90;;;;;;4861319;29;20309;-74
2022/04/09 00:57:35;;;;;;;;;;;19.90;99.90;;;;;;4862252;29;19968;-76
2022/04/09 01:00:11;;;;;;;;;;;19.90;99.90;;;;;;4861981;29;20375;-77
2022/04/09 01:02:42;;;;;;;;;;;19.80;99.90;;;;;;4862147;29;20400;-77
2022/04/09 01:05:09;;;;;;;;;;;19.90;99.90;;;;;;4861926;29;20331;-76
2022/04/09 01:07:36;;;;;;;;;;;19.90;99.90;;;;;;4862078;29;19948;-77
2022/04/09 01:10:08;;;;;;;;;;;19.80;99.90;;;;;;4862122;29;20435;-72
2022/04/09 01:12:36;;;;;;;;;;;19.90;99.90;;;;;;4860680;29;20329;-72
2022/04/09 01:15:06;;;;;;;;;;;20.00;99.90;;;;;;4861442;29;19922;-72
2022/04/09 01:17:33;;;;;;;;;;;20.10;99.90;;;;;;4861732;29;20016;-73
2022/04/09 01:20:13;;;;;;;;;;;20.10;99.90;;;;;;4861255;29;19923;-72
2022/04/09 01:22:40;;;;;;;;;;;19.90;99.90;;;;;;4862039;29;19919;-72
2022/04/09 01:25:07;;;;;;;;;;;19.80;99.90;;;;;;4861764;29;19916;-72
2022/04/09 01:27:34;;;;;;;;;;;19.70;99.90;;;;;;4861538;29;19951;-72
2022/04/09 01:30:01;;;;;;;;;;;19.70;99.90;;;;;;4861248;29;19912;-71
2022/04/09 01:32:27;;;;;;;;;;;19.90;99.90;;;;;;4861622;29;19919;-71
2022/04/09 01:34:54;;;;;;;;;;;19.90;99.90;;;;;;4861042;29;20359;-72
2022/04/09 01:37:21;;;;;;;;;;;19.80;99.90;;;;;;4861619;29;20261;-74
2022/04/09 01:39:47;;;;;;;;;;;19.50;99.90;;;;;;4861366;29;19919;-75
2022/04/09 01:42:14;;;;;;;;;;;19.50;99.90;;;;;;4861595;29;20053;-72
2022/04/09 01:44:41;;;;;;;;;;;19.60;99.90;;;;;;4861024;29;19948;-72
2022/04/09 01:47:07;;;;;;;;;;;19.60;99.90;;;;;;4861274;29;20340;-72
2022/04/09 01:49:34;;;;;;;;;;;19.60;99.90;;;;;;4860974;29;19920;-71
2022/04/09 01:52:01;;;;;;;;;;;19.60;99.90;;;;;;4861419;29;19961;-72
2022/04/09 01:54:27;;;;;;;;;;;19.60;99.90;;;;;;4861123;29;19999;-73
2022/04/09 01:56:54;;;;;;;;;;;19.80;99.90;;;;;;4861144;29;20364;-72
2022/04/09 01:59:21;;;;;;;;;;;19.90;99.90;;;;;;4860981;29;19951;-72
2022/04/09 02:01:48;;;;;;;;;;;19.90;99.90;;;;;;4861012;29;20387;-74
2022/04/09 02:04:17;;;;;;;;;;;19.90;99.90;;;;;;4860826;29;19920;-72
2022/04/09 02:06:44;;;;;;;;;;;20.00;99.90;;;;;;4861504;29;20279;-75
2022/04/09 02:09:14;;;;;;;;;;;20.10;99.90;;;;;;4860674;29;20137;-74
2022/04/09 02:11:41;;;;;;;;;;;20.10;99.90;;;;;;4860815;29;19993;-75
2022/04/09 02:14:09;;;;;;;;;;;20.20;99.90;;;;;;4860512;29;19919;-73
2022/04/09 02:16:36;;;;;;;;;;;20.20;99.90;;;;;;4860896;29;19942;-76
2022/04/09 02:19:03;;;;;;;;;;;20.20;99.90;;;;;;4860814;29;19912;-78
2022/04/09 02:21:30;;;;;;;;;;;20.40;99.90;;;;;;4860987;29;20338;-76
2022/04/09 02:23:57;;;;;;;;;;;20.50;99.90;;;;;;4860923;29;19975;-77
2022/04/09 02:26:23;;;;;;;;;;;20.40;99.90;;;;;;4860821;29;19937;-76
2022/04/09 02:28:50;;;;;;;;;;;20.40;99.90;;;;;;4860496;29;19968;-77
2022/04/09 02:31:17;;;;;;;;;;;20.50;99.90;;;;;;4860154;29;20364;-76
2022/04/09 02:33:44;;;;;;;;;;;20.40;99.90;;;;;;4860338;29;19961;-75
2022/04/09 02:36:12;;;;;;;;;;;20.10;99.90;;;;;;4860906;29;19928;-75
2022/04/09 02:38:39;;;;;;;;;;;19.80;99.90;;;;;;4860901;29;19916;-75
2022/04/09 02:41:08;;;;;;;;;;;19.80;99.90;;;;;;4860792;29;19916;-76
2022/04/09 02:43:35;;;;;;;;;;;19.70;99.90;;;;;;4860162;29;19951;-74
2022/04/09 02:46:01;;;;;;;;;;;19.50;99.90;;;;;;4860835;29;19968;-76
2022/04/09 02:48:28;;;;;;;;;;;19.30;99.90;;;;;;4860392;29;19972;-76
2022/04/09 02:50:55;;;;;;;;;;;19.10;99.90;;;;;;4860593;29;19913;-75
2022/04/09 02:53:21;;;;;;;;;;;19.10;99.90;;;;;;4860760;29;19935;-76
2022/04/09 02:55:48;;;;;;;;;;;19.00;99.90;;;;;;4860230;29;20364;-77
2022/04/09 02:58:15;;;;;;;;;;;19.00;99.90;;;;;;4860391;29;19967;-77
2022/04/09 03:00:41;;;;;;;;;;;19.00;99.90;;;;;;4859331;29;19916;-76
2022/04/09 03:03:08;;;;;;;;;;;19.00;99.90;;;;;;4860125;29;19924;-77
2022/04/09 03:05:35;;;;;;;;;;;19.10;99.90;;;;;;4860518;29;20248;-76
2022/04/09 03:08:01;;;;;;;;;;;19.10;99.90;;;;;;4860456;29;20382;-79
2022/04/09 03:10:28;;;;;;;;;;;19.00;99.90;;;;;;4860550;29;19998;-77
2022/04/09 03:12:56;;;;;;;;;;;18.80;99.90;;;;;;4860317;29;20360;-78
2022/04/09 03:15:23;;;;;;;;;;;18.80;99.90;;;;;;4860259;29;19920;-78
2022/04/09 03:17:50;;;;;;;;;;;18.90;99.90;;;;;;4859915;29;19923;-76
2022/04/09 03:20:16;;;;;;;;;;;18.90;99.90;;;;;;4860528;29;20337;-79
2022/04/09 03:22:47;;;;;;;;;;;19.00;99.90;;;;;;4860454;29;19945;-77
2022/04/09 03:25:14;;;;;;;;;;;19.10;99.90;;;;;;4860301;29;19912;-78
2022/04/09 03:27:40;;;;;;;;;;;19.20;99.90;;;;;;4859660;29;19912;-77
2022/04/09 03:30:08;;;;;;;;;;;19.40;99.90;;;;;;4860505;29;19916;-78
2022/04/09 03:32:38;;;;;;;;;;;19.40;99.90;;;;;;4860052;29;19935;-78
2022/04/09 03:35:06;;;;;;;;;;;19.50;99.90;;;;;;4860115;29;20356;-78
2022/04/09 03:37:36;;;;;;;;;;;19.60;99.90;;;;;;4859793;29;19912;-78
2022/04/09 03:40:07;;;;;;;;;;;19.80;99.90;;;;;;4860152;29;20007;-77
2022/04/09 03:42:33;;;;;;;;;;;19.80;99.90;;;;;;4862106;29;19912;-78
2022/04/09 03:45:00;;;;;;;;;;;20.10;99.90;;;;;;4863617;29;19919;-78
2022/04/09 03:47:27;;;;;;;;;;;20.30;99.90;;;;;;4863265;29;20000;-77
2022/04/09 03:49:54;;;;;;;;;;;20.40;99.90;;;;;;4863260;29;19912;-78
2022/04/09 03:52:20;;;;;;;;;;;20.50;99.90;;;;;;4863574;29;19988;-78
2022/04/09 03:54:47;;;;;;;;;;;20.60;99.90;;;;;;4872324;29;20283;-78
2022/04/09 03:57:14;;;;;;;;;;;20.60;99.90;;;;;;4863466;29;19923;-78
2022/04/09 03:59:40;;;;;;;;;;;20.50;99.90;;;;;;4863172;29;19940;-79
2022/04/09 04:02:07;;;;;;;;;;;20.50;99.90;;;;;;4863289;29;19983;-78
2022/04/09 04:04:35;;;;;;;;;;;20.60;99.90;;;;;;4863314;29;19916;-78
2022/04/09 04:07:01;;;;;;;;;;;20.50;99.90;;;;;;4872663;29;19949;-78
2022/04/09 04:09:28;;;;;;;;;;;20.60;99.90;;;;;;4862647;29;19920;-78
2022/04/09 04:11:55;;;;;;;;;;;20.70;99.90;;;;;;4862559;29;19916;-80
2022/04/09 04:14:21;;;;;;;;;;;20.80;99.90;;;;;;4862526;29;19916;-78
2022/04/09 04:16:48;;;;;;;;;;;20.90;99.90;;;;;;4862464;29;20352;-79
2022/04/09 04:19:15;;;;;;;;;;;20.80;99.90;;;;;;4862426;29;19912;-80
2022/04/09 04:21:44;;;;;;;;;;;20.90;99.90;;;;;;4862331;29;20003;-79
2022/04/09 04:24:11;;;;;;;;;;;21.00;99.90;;;;;;4862453;29;20002;-78
2022/04/09 04:26:38;;;;;;;;;;;21.00;99.90;;;;;;4862365;29;19944;-78
2022/04/09 04:29:04;;;;;;;;;;;20.70;99.90;;;;;;4862344;29;20344;-75
2022/04/09 04:31:31;;;;;;;;;;;20.60;99.90;;;;;;4862061;29;20405;-75
2022/04/09 04:33:57;;;;;;;;;;;20.60;99.90;;;;;;4862336;29;19920;-75
2022/04/09 04:36:24;;;;;;;;;;;20.80;99.90;;;;;;4862114;29;20022;-74
2022/04/09 04:38:51;;;;;;;;;;;20.90;99.90;;;;;;4862174;29;19912;-74
2022/04/09 04:41:18;;;;;;;;;;;20.90;99.90;;;;;;4862048;29;20337;-77
2022/04/09 04:43:49;;;;;;;;;;;20.90;99.90;;;;;;4861947;29;20460;-74
2022/04/09 04:46:15;;;;;;;;;;;21.10;99.90;;;;;;4862117;29;19913;-75
2022/04/09 04:48:42;;;;;;;;;;;21.20;99.90;;;;;;4861800;29;20268;-75
2022/04/09 04:51:09;;;;;;;;;;;21.40;99.90;;;;;;4861975;29;19920;-74
2022/04/09 04:53:35;;;;;;;;;;;21.40;99.90;;;;;;4861025;29;19913;-75
2022/04/09 04:56:02;;;;;;;;;;;21.40;99.90;;;;;;4862032;29;20352;-74
2022/04/09 04:58:29;;;;;;;;;;;21.50;99.90;;;;;;4862016;29;19922;-73
2022/04/09 05:00:56;;;;;;;;;;;21.50;99.90;;;;;;4861652;29;19912;-75
2022/04/09 05:03:23;;;;;;;;;;;21.40;99.90;;;;;;4861408;29;20387;-76
2022/04/09 05:05:49;;;;;;;;;;;21.50;99.90;;;;;;4861375;29;19912;-76
2022/04/09 05:08:16;;;;;;;;;;;21.40;99.90;;;;;;4873029;29;19916;-76
2022/04/09 05:10:43;;;;;;;;;;;21.40;99.90;;;;;;4881078;29;19959;-76
2022/04/09 05:13:09;;;;;;;;;;;21.40;99.90;;;;;;4881114;29;20015;-77
2022/04/09 05:15:36;;;;;;;;;;;21.30;99.90;;;;;;4880712;29;19974;-77
2022/04/09 05:18:03;;;;;;;;;;;21.30;99.90;;;;;;4880250;29;19919;-76
2022/04/09 05:20:30;;;;;;;;;;;21.30;99.90;;;;;;4880607;29;19919;-76
2022/04/09 05:22:56;;;;;;;;;;;21.20;99.90;;;;;;4880640;29;19912;-76
2022/04/09 05:25:23;;;;;;;;;;;21.20;99.90;;;;;;4880519;29;19919;-76
2022/04/09 05:27:50;;;;;;;;;;;21.20;99.90;;;;;;4880292;29;19912;-75
2022/04/09 05:30:17;;;;;;;;;;;21.20;99.90;;;;;;4880462;29;19911;-75
2022/04/09 05:32:44;;;;;;;;;;;21.20;99.90;;;;;;4880271;29;19911;-75
2022/04/09 05:35:12;;;;;;;;;;;21.30;99.90;;;;;;4880389;29;20340;-76
2022/04/09 05:37:42;;;;;;;;;;;21.40;99.90;;;;;;4880083;29;19920;-75
2022/04/09 05:40:09;;;;;;;;;;;21.40;99.90;;;;;;4880130;29;20287;-76
2022/04/09 05:42:36;;;;;;;;;;;21.30;99.90;;;;;;4880177;29;20328;-76
2022/04/09 05:45:03;;;;;;;;;;;21.20;99.90;;;;;;4863486;29;19911;-75
2022/04/09 05:47:29;;;;;;;;;;;21.10;99.90;;;;;;4880048;29;20007;-74
2022/04/09 05:49:59;;;;;;;;;;;21.00;99.90;;;;;;4879934;29;20356;-75
2022/04/09 05:52:26;;;;;;;;;;;21.00;99.90;;;;;;4879968;29;20275;-75
2022/04/09 05:54:53;;;;;;;;;;;20.90;99.90;;;;;;4879943;29;20376;-76
2022/04/09 05:57:20;;;;;;;;;;;20.90;99.90;;;;;;4880032;29;19912;-76
2022/04/09 05:59:47;;;;;;;;;;;20.90;99.90;;;;;;4879659;29;19998;-75
2022/04/09 06:02:13;;;;;;;;;;;20.90;99.90;;;;;;4879687;29;19962;-76
2022/04/09 06:04:40;;;;;;;;;;;20.80;99.90;;;;;;4879702;29;19912;-76
2022/04/09 06:07:07;;;;;;;;;;;20.80;99.90;;;;;;4879728;29;19915;-74
2022/04/09 06:09:33;;;;;;;;;;;20.90;99.90;;;;;;4879737;29;19939;-74
2022/04/09 06:12:01;;;;;;;;;;;20.90;99.90;;;;;;4879853;29;19911;-74
2022/04/09 06:14:28;;;;;;;;;;;21.00;99.90;;;;;;4879623;29;19912;-74
2022/04/09 06:16:54;;;;;;;;;;;21.00;99.90;;;;;;4879458;29;20287;-75
2022/04/09 06:19:21;;;;;;;;;;;21.00;99.90;;;;;;4879656;29;20006;-76
2022/04/09 06:21:48;;;;;;;;;;;21.00;99.90;;;;;;4879500;29;20048;-76
2022/04/09 06:24:14;;;;;;;;;;;20.90;99.90;;;;;;4879579;29;20328;-75
2022/04/09 06:26:41;;;;;;;;;;;20.80;99.90;;;;;;4879535;29;20014;-74
2022/04/09 06:29:08;;;;;;;;;;;20.80;99.90;;;;;;4879639;29;20023;-74
2022/04/09 06:31:34;;;;;;;;;;;20.90;99.90;;;;;;4879387;29;20427;-74
2022/04/09 06:34:01;;;;;;;;;;;20.90;99.90;;;;;;4879520;29;20291;-75
2022/04/09 06:36:28;;;;;;;;;;;21.00;99.90;;;;;;4879317;29;20011;-74
2022/04/09 06:38:54;;;;;;;;;;;21.00;99.90;;;;;;4879424;29;20015;-74
2022/04/09 06:41:21;;;;;;;;;;;21.00;99.90;;;;;;4879301;29;19968;-73
2022/04/09 06:43:48;;;;;;;;;;;20.90;99.90;;;;;;4879398;29;20361;-75
2022/04/09 06:46:15;;;;;;;;;;;20.80;99.90;;;;;;4879532;29;20267;-73
2022/04/09 06:48:42;;;;;;;;;;;20.70;99.90;;;;;;4862589;29;20283;-73
2022/04/09 06:51:08;;;;;;;;;;;20.70;99.90;;;;;;4879458;29;20546;-73
2022/04/09 06:53:35;;;;;;;;;;;20.70;99.90;;;;;;4878996;29;19930;-73
2022/04/09 06:56:04;;;;;;;;;;;20.80;99.90;;;;;;4879250;29;19920;-73
2022/04/09 06:58:31;;;;;;;;;;;20.90;99.90;;;;;;4875355;29;19912;-74
2022/04/09 07:00:58;;;;;;;;;;;20.80;99.90;;;;;;4879356;29;19919;-74
2022/04/09 07:03:25;;;;;;;;;;;20.80;99.90;;;;;;4878878;29;19967;-73
2022/04/09 07:05:52;;;;;;;;;;;20.80;99.90;;;;;;4878995;29;20383;-72
2022/04/09 07:08:19;;;;;;;;;;;20.80;99.90;;;;;;4879176;29;20051;-73
2022/04/09 07:10:46;;;;;;;;;;;20.70;99.90;;;;;;4879286;29;20356;-73
2022/04/09 07:13:13;;;;;;;;;;;20.70;99.90;;;;;;4878758;29;19912;-73
2022/04/09 07:15:40;;;;;;;;;;;20.70;99.90;;;;;;4878852;29;19922;-74
2022/04/09 07:18:06;;;;;;;;;;;20.70;99.90;;;;;;4882566;29;19912;-74
2022/04/09 07:20:35;;;;;;;;;;;20.70;99.90;;;;;;4882511;29;20380;-74
2022/04/09 07:23:02;;;;;;;;;;;20.60;99.90;;;;;;4882502;29;19988;-73
2022/04/09 07:25:30;;;;;;;;;;;20.60;99.90;;;;;;4882405;29;19964;-74
2022/04/09 07:27:56;;;;;;;;;;;20.60;99.90;;;;;;4882015;29;20256;-74
2022/04/09 07:30:24;;;;;;;;;;;20.50;99.90;;;;;;4882149;29;19958;-73
2022/04/09 07:32:51;;;;;;;;;;;20.50;99.90;;;;;;4882440;29;19916;-74
2022/04/09 07:35:18;;;;;;;;;;;20.50;99.90;;;;;;4882481;29;19920;-74
2022/04/09 07:37:45;;;;;;;;;;;20.40;99.90;;;;;;4882150;29;19912;-77
2022/04/09 07:40:13;;;;;;;;;;;20.40;99.90;;;;;;4882371;29;19912;-76
2022/04/09 07:42:40;;;;;;;;;;;20.40;99.90;;;;;;4882367;29;20328;-74
2022/04/09 07:45:07;;;;;;;;;;;20.30;99.90;;;;;;4882313;29;20216;-75
2022/04/09 07:47:34;;;;;;;;;;;20.30;99.90;;;;;;4865480;29;20006;-74
2022/04/09 07:50:02;;;;;;;;;;;20.30;99.90;;;;;;4882357;29;20010;-75
2022/04/09 07:52:29;;;;;;;;;;;20.30;99.90;;;;;;4882135;29;19923;-75
2022/04/09 07:54:57;;;;;;;;;;;20.30;99.90;;;;;;4882037;29;19919;-73
2022/04/09 07:57:25;;;;;;;;;;;20.30;99.90;;;;;;4882109;29;19916;-75
2022/04/09 07:59:53;;;;;;;;;;;20.30;99.90;;;;;;4881951;29;19912;-75
2022/04/09 08:02:20;;;;;;;;;;;20.30;99.90;;;;;;4881795;29;19924;-75
2022/04/09 08:04:46;;;;;;;;;;;20.20;99.90;;;;;;4882144;29;19922;-75
2022/04/09 08:07:13;;;;;;;;;;;20.20;99.90;;;;;;4881825;29;20003;-73
2022/04/09 08:09:40;;;;;;;;;;;20.20;99.90;;;;;;4881595;29;20007;-75
2022/04/09 08:12:07;;;;;;;;;;;20.20;99.90;;;;;;4881965;29;19912;-75
2022/04/09 08:14:34;;;;;;;;;;;20.10;99.90;;;;;;4881971;29;19912;-74
2022/04/09 08:17:00;;;;;;;;;;;20.10;99.90;;;;;;4881647;29;20287;-75
2022/04/09 08:19:27;;;;;;;;;;;20.10;99.90;;;;;;4881700;29;19916;-75
2022/04/09 08:21:55;;;;;;;;;;;20.10;99.90;;;;;;4881388;29;19912;-75
2022/04/09 08:24:21;;;;;;;;;;;20.10;99.90;;;;;;4881621;29;20267;-74
2022/04/09 08:26:48;;;;;;;;;;;20.10;99.90;;;;;;4881573;29;19912;-75
2022/04/09 08:29:20;;;;;;;;;;;20.10;99.90;;;;;;4880493;29;20291;-75
2022/04/09 08:31:47;;;;;;;;;;;20.10;99.90;;;;;;4881216;29;19976;-75
2022/04/09 08:34:15;;;;;;;;;;;20.10;99.90;;;;;;4881318;29;19911;-75
2022/04/09 08:36:42;;;;;;;;;;;20.10;99.90;;;;;;4881400;29;19978;-75
2022/04/09 08:39:08;;;;;;;;;;;20.10;99.90;;;;;;4881290;29;19923;-76
2022/04/09 08:41:36;;;;;;;;;;;20.20;99.90;;;;;;4881045;29;19916;-76
2022/04/09 08:44:03;;;;;;;;;;;20.10;99.90;;;;;;4881416;29;19911;-76
2022/04/09 08:46:30;;;;;;;;;;;20.10;99.90;;;;;;4880952;29;20328;-76
2022/04/09 08:48:58;;;;;;;;;;;20.00;99.90;;;;;;4881315;29;19912;-75
2022/04/09 08:51:25;;;;;;;;;;;20.00;99.90;;;;;;4881113;29;19912;-75
2022/04/09 08:53:52;;;;;;;;;;;20.00;99.90;;;;;;4880876;29;19912;-75
2022/04/09 08:56:19;;;;;;;;;;;20.00;99.90;;;;;;4880950;29;19947;-75
2022/04/09 08:58:45;;;;;;;;;;;20.00;99.90;;;;;;4881150;29;19912;-76
2022/04/09 09:01:12;;;;;;;;;;;20.00;99.90;;;;;;4866830;29;19913;-76
2022/04/09 09:03:39;;;;;;;;;;;20.00;99.90;;;;;;4861946;29;19935;-75
2022/04/09 09:06:25;;;;;;;;;;;20.00;99.90;;;;;;4862303;29;19919;-74
2022/04/09 09:08:52;;;;;;;;;;;20.00;99.90;;;;;;4862272;29;19912;-75
2022/04/09 09:11:19;;;;;;;;;;;20.00;99.90;;;;;;4862322;29;19922;-76
2022/04/09 09:13:50;;;;;;;;;;;19.90;99.90;;;;;;4861403;29;19995;-76
2022/04/09 09:16:26;;;;;;;;;;;20.00;99.90;;;;;;4862044;29;20388;-75
2022/04/09 09:18:54;;;;;;;;;;;20.00;99.90;;;;;;4862023;29;20428;-75
2022/04/09 09:21:23;;;;;;;;;;;19.90;99.90;;;;;;4862140;29;19912;-75
2022/04/09 09:23:52;;;;;;;;;;;19.90;99.90;;;;;;4861959;29;20007;-75
2022/04/09 09:26:23;;;;;;;;;;;19.90;99.90;;;;;;4861927;29;19923;-75
2022/04/09 09:28:57;;;;;;;;;;;19.90;99.90;;;;;;4861262;29;19961;-74
2022/04/09 09:31:43;;;;;;;;;;;19.90;99.90;;;;;;4861465;29;20012;-74
2022/04/09 09:34:10;;;;;;;;;;;19.90;99.90;;;;;;4861578;29;19920;-74
2022/04/09 09:36:40;;;;;;;;;;;19.80;99.90;;;;;;4861579;29;19984;-74
2022/04/09 09:39:08;;;;;;;;;;;19.90;99.90;;;;;;4861311;29;19913;-74
2022/04/09 09:41:34;;;;;;;;;;;19.90;99.90;;;;;;4861400;29;20386;-74
2022/04/09 09:44:05;;;;;;;;;;;19.80;99.90;;;;;;4861561;29;19919;-74
2022/04/09 09:46:32;;;;;;;;;;;19.80;99.90;;;;;;4861427;29;19912;-75
2022/04/09 09:48:59;;;;;;;;;;;19.80;99.90;;;;;;4861756;29;19972;-75
2022/04/09 09:51:26;;;;;;;;;;;19.90;99.90;;;;;;4861752;29;19918;-75
2022/04/09 09:54:13;;;;;;;;;;;19.90;99.90;;;;;;4861401;29;19913;-75
2022/04/09 09:56:41;;;;;;;;;;;19.90;99.90;;;;;;4861409;29;20327;-75
2022/04/09 09:59:09;;;;;;;;;;;19.90;99.90;;;;;;4861751;29;20402;-75
2022/04/09 10:01:40;;;;;;;;;;;20.00;99.90;;;;;;4861345;29;19912;-75
2022/04/09 10:04:08;;;;;;;;;;;20.00;99.90;;;;;;4861077;29;19931;-75
2022/04/09 10:06:35;;;;;;;;;;;20.00;99.90;;;;;;4861598;29;20375;-75
2022/04/09 10:09:05;;;;;;;;;;;20.00;99.90;;;;;;4861399;29;19984;-75
2022/04/09 10:11:36;;;;;;;;;;;20.10;99.90;;;;;;4861148;29;19968;-73
2022/04/09 10:14:04;;;;;;;;;;;20.10;99.90;;;;;;4861178;29;19912;-75
2022/04/09 10:16:34;;;;;;;;;;;20.10;99.90;;;;;;4860967;29;19968;-74
2022/04/09 10:19:02;;;;;;;;;;;20.10;99.90;;;;;;4861190;29;19948;-74
2022/04/09 10:21:29;;;;;;;;;;;20.10;99.90;;;;;;4861159;29;20356;-75
2022/04/09 10:23:57;;;;;;;;;;;20.10;99.90;;;;;;4860139;29;19912;-73
2022/04/09 10:26:25;;;;;;;;;;;20.20;99.90;;;;;;4861048;29;20010;-74
2022/04/09 10:28:52;;;;;;;;;;;20.10;99.90;;;;;;4860916;29;19964;-75
2022/04/09 10:31:24;;;;;;;;;;;20.10;99.90;;;;;;4868556;29;19922;-75
2022/04/09 10:33:58;;;;;;;;;;;20.00;99.90;;;;;;4876657;29;19912;-73
2022/04/09 10:36:42;;;;;;;;;;;19.90;99.90;;;;;;4876607;29;19927;-73
2022/04/09 10:39:40;;;;;;;;;;;19.90;99.90;;;;;;4876569;29;19923;-72
2022/04/09 10:42:07;;;;;;;;;;;19.80;99.90;;;;;;4876390;29;20396;-74
2022/04/09 10:44:43;;;;;;;;;;;19.80;99.90;;;;;;4876901;29;20314;-72
2022/04/09 10:47:12;;;;;;;;;;;19.80;99.90;;;;;;4876448;29;20300;-74
2022/04/09 10:49:38;;;;;;;;;;;19.70;99.90;;;;;;4876357;29;20551;-72
2022/04/09 10:52:07;;;;;;;;;;;19.70;99.90;;;;;;4878442;29;19916;-74
2022/04/09 10:54:34;;;;;;;;;;;19.80;99.90;;;;;;4880551;29;19971;-74
2022/04/09 10:57:07;;;;;;;;;;;19.70;99.90;;;;;;4879807;29;19924;-73
2022/04/09 10:59:34;;;;;;;;;;;19.70;99.90;;;;;;4880441;29;19983;-74
2022/04/09 11:02:04;;;;;;;;;;;19.70;99.90;;;;;;4879996;29;19912;-73
2022/04/09 11:04:36;;;;;;;;;;;19.70;99.90;;;;;;4880300;29;19923;-73
2022/04/09 11:07:22;;;;;;;;;;;19.70;99.90;;;;;;4880258;29;19923;-73
2022/04/09 11:09:58;;;;;;;;;;;19.60;99.90;;;;;;4879680;29;20060;-74
2022/04/09 11:12:27;;;;;;;;;;;19.60;99.90;;;;;;4880076;29;19934;-74
2022/04/09 11:14:55;;;;;;;;;;;19.60;99.90;;;;;;4879865;29;19940;-74
2022/04/09 11:17:24;;;;;;;;;;;19.60;99.90;;;;;;4880093;29;19916;-74
2022/04/09 11:19:52;;;;;;;;;;;19.60;99.90;;;;;;4879895;29;20044;-75
2022/04/09 11:22:19;;;;;;;;;;;19.50;99.90;;;;;;4862913;29;20018;-75
2022/04/09 11:24:45;;;;;;;;;;;19.60;99.90;;;;;;4880046;29;19939;-74
2022/04/09 11:27:12;;;;;;;;;;;19.70;99.90;;;;;;4880126;29;19939;-74
2022/04/09 11:29:40;;;;;;;;;;;19.70;99.90;;;;;;4879560;29;19919;-74
2022/04/09 11:32:07;;;;;;;;;;;19.70;99.90;;;;;;4879650;29;20268;-75
2022/04/09 11:34:47;;;;;;;;;;;19.70;99.90;;;;;;4879560;29;19911;-74
2022/04/09 11:37:14;;;;;;;;;;;19.70;99.90;;;;;;4879838;29;19920;-74
2022/04/09 11:39:41;;;;;;;;;;;19.70;99.90;;;;;;4879599;29;19912;-74
2022/04/09 11:42:09;;;;;;;;;;;19.70;99.90;;;;;;4879749;29;20010;-73
2022/04/09 11:44:41;;;;;;;;;;;19.80;99.90;;;;;;4879579;29;19912;-75
2022/04/09 11:47:09;;;;;;;;;;;19.80;99.90;;;;;;4879123;29;19916;-73
2022/04/09 11:49:36;;;;;;;;;;;19.90;99.90;;;;;;4879455;29;20279;-74
2022/04/09 11:52:03;;;;;;;;;;;19.90;99.90;;;;;;4879554;29;20375;-74
2022/04/09 11:54:33;;;;;;;;;;;19.90;99.90;;;;;;4879390;29;20359;-75
2022/04/09 11:57:01;;;;;;;;;;;19.90;99.90;;;;;;4879304;29;19927;-75
2022/04/09 11:59:29;;;;;;;;;;;20.00;99.90;;;;;;4862605;29;20020;-74
2022/04/09 12:01:57;;;;;;;;;;;19.90;99.90;;;;;;4878740;29;19916;-73
2022/04/09 12:04:23;;;;;;;;;;;19.90;99.90;;;;;;4879275;29;19931;-74
2022/04/09 12:06:51;;;;;;;;;;;19.90;99.90;;;;;;4879385;29;19917;-74
2022/04/09 12:09:17;;;;;;;;;;;19.80;99.90;;;;;;4879343;29;20307;-74
2022/04/09 12:11:52;;;;;;;;;;;19.80;99.90;;;;;;4879140;29;20453;-75
2022/04/09 12:14:20;;;;;;;;;;;19.80;99.90;;;;;;4879240;29;19916;-74
2022/04/09 12:16:49;;;;;;;;;;;19.80;99.90;;;;;;4878996;29;19919;-75
2022/04/09 12:19:16;;;;;;;;;;;19.70;99.90;;;;;;4879418;29;19911;-75
2022/04/09 12:21:43;;;;;;;;;;;19.70;99.90;;;;;;4878885;29;20284;-75
2022/04/09 12:24:10;;;;;;;;;;;19.70;99.90;;;;;;4879196;29;19916;-75
2022/04/09 12:26:37;;;;;;;;;;;19.70;99.90;;;;;;4878505;29;19923;-74
2022/04/09 12:29:13;;;;;;;;;;;19.70;99.90;;;;;;4878830;29;19955;-74
2022/04/09 12:31:41;;;;;;;;;;;19.70;99.90;;;;;;4878684;29;19943;-73
2022/04/09 12:34:07;;;;;;;;;;;19.70;99.90;;;;;;4879002;29;20414;-74
2022/04/09 12:36:36;;;;;;;;;;;19.70;99.90;;;;;;4878970;29;19920;-73
2022/04/09 12:39:21;;;;;;;;;;;19.70;99.90;;;;;;4878961;29;19911;-74
2022/04/09 12:41:48;;;;;;;;;;;19.60;99.90;;;;;;4878645;29;19911;-74
2022/04/09 12:44:44;;;;;;;;;;;19.60;99.90;;;;;;4878574;29;19912;-74
2022/04/09 12:47:11;;;;;;;;;;;19.60;99.90;;;;;;4862936;29;19916;-75
2022/04/09 12:49:42;;;;;;;;;;;19.60;99.90;;;;;;4878530;29;19912;-75
2022/04/09 12:52:11;;;;;;;;;;;19.50;99.90;;;;;;4878580;29;20003;-72
2022/04/09 12:54:39;;;;;;;;;;;19.60;99.90;;;;;;4878059;29;20471;-74
2022/04/09 12:57:09;;;;;;;;;;;19.60;99.90;;;;;;4878234;29;20363;-73
2022/04/09 12:59:36;;;;;;;;;;;19.60;99.90;;;;;;4878112;29;20013;-75
2022/04/09 13:02:04;;;;;;;;;;;19.60;99.90;;;;;;4878147;29;19912;-73
2022/04/09 13:04:31;;;;;;;;;;;19.60;99.90;;;;;;4878622;29;19920;-74
2022/04/09 13:06:57;;;;;;;;;;;19.60;99.90;;;;;;4878250;29;19916;-74
2022/04/09 13:09:24;;;;;;;;;;;19.50;99.90;;;;;;4878307;29;20306;-74
2022/04/09 13:11:51;;;;;;;;;;;19.50;99.90;;;;;;4867946;29;19912;-74
2022/04/09 13:14:17;;;;;;;;;;;19.40;99.90;;;;;;4859546;29;20333;-73
2022/04/09 13:16:44;;;;;;;;;;;19.40;99.90;;;;;;4860409;29;19924;-75
2022/04/09 13:19:11;;;;;;;;;;;19.30;99.90;;;;;;4859892;29;19978;-74
2022/04/09 13:21:38;;;;;;;;;;;19.30;99.90;;;;;;4860054;29;19916;-74
2022/04/09 13:24:06;;;;;;;;;;;19.20;99.90;;;;;;4859884;29;20260;-75
2022/04/09 13:26:33;;;;;;;;;;;19.10;99.90;;;;;;4860028;29;20003;-74
2022/04/09 13:28:59;;;;;;;;;;;19.10;99.90;;;;;;4860457;29;20343;-75
2022/04/09 13:31:31;;;;;;;;;;;19.10;99.90;;;;;;4859863;29;20231;-73
2022/04/09 13:34:02;;;;;;;;;;;19.00;99.90;;;;;;4859899;29;19912;-74
2022/04/09 13:36:28;;;;;;;;;;;19.00;99.90;;;;;;4859859;29;20368;-74
2022/04/09 13:38:55;;;;;;;;;;;19.00;99.90;;;;;;4859529;29;19912;-74
2022/04/09 13:41:25;;;;;;;;;;;19.00;99.90;;;;;;4859963;29;19935;-74
2022/04/09 13:43:54;;;;;;;;;;;19.00;99.90;;;;;;4859729;29;19920;-73
2022/04/09 13:46:20;;;;;;;;;;;19.00;99.90;;;;;;4859545;29;19981;-73
2022/04/09 13:48:47;;;;;;;;;;;19.10;99.90;;;;;;4859862;29;20276;-73
2022/04/09 13:51:14;;;;;;;;;;;19.20;99.90;;;;;;4859446;29;20007;-74
2022/04/09 13:53:41;;;;;;;;;;;19.20;99.90;;;;;;4859537;29;20356;-73
2022/04/09 13:56:07;;;;;;;;;;;19.10;99.90;;;;;;4859475;29;19976;-73
2022/04/09 13:58:34;;;;;;;;;;;19.10;99.90;;;;;;4859503;29;19920;-74
2022/04/09 14:01:01;;;;;;;;;;;19.10;99.90;;;;;;4859436;29;19919;-73
2022/04/09 14:03:28;;;;;;;;;;;19.10;99.90;;;;;;4857709;29;20308;-73
2022/04/09 14:05:54;;;;;;;;;;;19.10;99.90;;;;;;4859284;29;20368;-73
2022/04/09 14:08:21;;;;;;;;;;;19.10;99.90;;;;;;4859383;29;19912;-72
2022/04/09 14:10:48;;;;;;;;;;;19.00;99.90;;;;;;4859407;29;20372;-73
2022/04/09 14:13:15;;;;;;;;;;;18.90;99.90;;;;;;4859300;29;20501;-73
2022/04/09 14:15:42;;;;;;;;;;;18.80;99.90;;;;;;4858974;29;19933;-73
2022/04/09 14:18:11;;;;;;;;;;;18.80;99.90;;;;;;4859023;29;19916;-73
2022/04/09 14:20:38;;;;;;;;;;;18.80;99.90;;;;;;4859251;29;19948;-72
2022/04/09 14:23:05;;;;;;;;;;;18.80;99.90;;;;;;4859304;29;19968;-73